createdAt,value
2022-12-07T00:00:22.508Z,7.00
2022-12-07T00:01:22.478Z,6.90
2022-12-07T00:02:22.996Z,7.30
2022-12-07T00:03:22.504Z,6.60
2022-12-07T00:04:22.377Z,7.10
2022-12-07T00:05:22.351Z,7.00
2022-12-07T00:06:22.327Z,6.60
2022-12-07T00:07:26.393Z,6.30
2022-12-07T00:08:22.322Z,6.30
2022-12-07T00:09:22.204Z,6.40
2022-12-07T00:10:22.193Z,6.20
2022-12-07T00:11:22.178Z,6.50
2022-12-07T00:12:22.253Z,6.70
2022-12-07T00:13:22.080Z,6.10
2022-12-07T00:14:22.088Z,6.20
2022-12-07T00:15:22.015Z,6.20
2022-12-07T00:16:22.039Z,6.80
2022-12-07T00:17:22.018Z,6.60
2022-12-07T00:18:21.927Z,6.50
2022-12-07T00:19:21.875Z,6.40
2022-12-07T00:20:21.867Z,7.10
2022-12-07T00:21:21.814Z,6.30
2022-12-07T00:22:21.799Z,6.10
2022-12-07T00:23:21.755Z,5.80
2022-12-07T00:24:21.757Z,6.50
2022-12-07T00:25:21.693Z,6.80
2022-12-07T00:26:21.616Z,6.90
2022-12-07T00:27:21.583Z,7.00
2022-12-07T00:28:21.571Z,6.20
2022-12-07T00:29:21.505Z,7.30
2022-12-07T00:30:21.511Z,6.80
2022-12-07T00:31:21.564Z,6.30
2022-12-07T00:32:21.543Z,6.70
2022-12-07T00:33:21.398Z,7.10
2022-12-07T00:34:21.417Z,7.90
2022-12-07T00:35:21.337Z,7.90
2022-12-07T00:36:26.301Z,6.80
2022-12-07T00:37:21.291Z,7.50
2022-12-07T00:38:21.283Z,7.30
2022-12-07T00:39:21.236Z,6.90
2022-12-07T00:40:21.219Z,7.20
2022-12-07T00:41:21.195Z,7.30
2022-12-07T00:42:25.061Z,7.50
2022-12-07T00:43:25.120Z,7.20
2022-12-07T00:44:25.088Z,7.40
2022-12-07T00:45:25.046Z,7.60
2022-12-07T00:46:25.056Z,7.30
2022-12-07T00:47:25.009Z,6.90
2022-12-07T00:48:24.952Z,7.10
2022-12-07T00:49:24.929Z,7.60
2022-12-07T00:50:24.888Z,7.80
2022-12-07T00:51:24.861Z,7.40
2022-12-07T00:52:24.808Z,7.00
2022-12-07T00:53:24.832Z,7.00
2022-12-07T00:54:24.854Z,7.10
2022-12-07T00:55:24.762Z,6.10
2022-12-07T00:56:24.675Z,6.30
2022-12-07T00:57:24.660Z,5.90
2022-12-07T00:58:24.604Z,6.00
2022-12-07T00:59:28.488Z,6.60
2022-12-07T01:00:28.589Z,6.20
2022-12-07T01:01:28.591Z,7.00
2022-12-07T01:02:28.491Z,5.40
2022-12-07T01:03:28.497Z,5.50
2022-12-07T01:04:28.413Z,5.80
2022-12-07T01:05:28.521Z,5.50
2022-12-07T01:06:28.397Z,5.20
2022-12-07T01:07:28.321Z,5.40
2022-12-07T01:08:28.297Z,5.80
2022-12-07T01:09:28.239Z,5.90
2022-12-07T01:10:28.215Z,5.90
2022-12-07T01:11:28.189Z,5.60
2022-12-07T01:12:28.197Z,5.40
2022-12-07T01:13:28.118Z,5.60
2022-12-07T01:15:33.075Z,5.30
2022-12-07T01:16:33.130Z,6.80
2022-12-07T01:17:33.085Z,5.50
2022-12-07T01:18:32.980Z,5.30
2022-12-07T01:19:32.931Z,5.40
2022-12-07T01:20:32.922Z,4.80
2022-12-07T01:21:32.889Z,5.80
2022-12-07T01:22:32.860Z,5.90
2022-12-07T01:23:32.833Z,5.80
2022-12-07T01:24:32.793Z,5.50
2022-12-07T01:25:32.727Z,5.40
2022-12-07T01:26:32.750Z,4.90
2022-12-07T01:27:32.706Z,4.80
2022-12-07T01:28:32.662Z,4.90
2022-12-07T01:29:32.617Z,5.20
2022-12-07T01:30:32.694Z,5.30
2022-12-07T01:31:32.569Z,4.60
2022-12-07T01:32:32.525Z,5.20
2022-12-07T01:33:32.459Z,4.60
2022-12-07T01:34:32.464Z,5.20
2022-12-07T01:35:32.430Z,6.30
2022-12-07T01:36:32.408Z,4.40
2022-12-07T01:37:32.388Z,4.70
2022-12-07T01:38:32.334Z,5.00
2022-12-07T01:39:32.268Z,5.00
2022-12-07T01:40:32.276Z,6.10
2022-12-07T01:41:32.236Z,4.80
2022-12-07T01:42:32.221Z,5.30
2022-12-07T01:43:32.161Z,6.10
2022-12-07T01:44:32.127Z,5.10
2022-12-07T01:45:32.095Z,4.80
2022-12-07T01:46:32.175Z,5.80
2022-12-07T01:47:32.023Z,5.50
2022-12-07T01:48:32.021Z,4.90
2022-12-07T01:49:31.942Z,5.20
2022-12-07T01:50:31.913Z,4.80
2022-12-07T01:51:31.857Z,6.20
2022-12-07T01:52:31.856Z,4.60
2022-12-07T01:53:31.822Z,5.10
2022-12-07T01:54:31.777Z,5.10
2022-12-07T01:55:31.718Z,4.90
2022-12-07T01:56:31.693Z,5.60
2022-12-07T01:57:31.625Z,5.80
2022-12-07T01:58:31.615Z,6.90
2022-12-07T01:59:31.614Z,5.70
2022-12-07T02:00:31.570Z,5.00
2022-12-07T02:01:31.583Z,5.40
2022-12-07T02:02:31.535Z,5.10
2022-12-07T02:03:31.416Z,5.20
2022-12-07T02:04:31.983Z,4.90
2022-12-07T02:05:31.354Z,5.50
2022-12-07T02:06:31.319Z,5.50
2022-12-07T02:07:31.265Z,5.90
2022-12-07T02:08:31.255Z,4.60
2022-12-07T02:09:31.193Z,5.50
2022-12-07T02:10:31.192Z,4.90
2022-12-07T02:11:31.117Z,4.80
2022-12-07T02:12:31.111Z,5.10
2022-12-07T02:13:31.075Z,5.10
2022-12-07T02:14:31.051Z,5.20
2022-12-07T02:15:31.015Z,5.40
2022-12-07T02:16:31.038Z,5.80
2022-12-07T02:17:30.998Z,5.50
2022-12-07T02:18:30.971Z,4.80
2022-12-07T02:19:30.922Z,5.50
2022-12-07T02:20:30.882Z,5.10
2022-12-07T02:21:30.923Z,5.70
2022-12-07T02:22:30.928Z,5.60
2022-12-07T02:23:30.790Z,5.00
2022-12-07T02:24:30.775Z,5.40
2022-12-07T02:25:30.710Z,5.60
2022-12-07T02:26:30.731Z,5.60
2022-12-07T02:27:30.676Z,5.30
2022-12-07T02:28:30.756Z,5.40
2022-12-07T02:29:30.626Z,5.10
2022-12-07T02:30:30.592Z,5.50
2022-12-07T02:31:30.577Z,6.30
2022-12-07T02:34:28.409Z,5.30
2022-12-07T02:35:28.419Z,5.90
2022-12-07T02:36:28.362Z,5.20
2022-12-07T02:37:28.372Z,5.70
2022-12-07T02:38:28.299Z,5.30
2022-12-07T02:39:28.279Z,5.90
2022-12-07T02:40:28.254Z,5.10
2022-12-07T02:41:28.204Z,5.30
2022-12-07T02:42:28.164Z,5.60
2022-12-07T02:43:28.138Z,5.30
2022-12-07T02:44:28.075Z,6.10
2022-12-07T02:45:28.084Z,5.10
2022-12-07T02:46:28.186Z,5.90
2022-12-07T02:47:27.980Z,5.10
2022-12-07T02:48:27.924Z,5.70
2022-12-07T02:49:27.937Z,5.40
2022-12-07T02:50:27.882Z,5.40
2022-12-07T02:51:32.747Z,5.40
2022-12-07T02:52:32.823Z,5.20
2022-12-07T02:53:32.783Z,5.00
2022-12-07T02:54:32.787Z,5.20
2022-12-07T02:55:32.791Z,5.00
2022-12-07T02:56:32.744Z,5.30
2022-12-07T02:57:32.670Z,5.50
2022-12-07T02:58:32.680Z,5.00
2022-12-07T02:59:32.608Z,5.10
2022-12-07T03:00:32.609Z,5.20
2022-12-07T03:01:32.627Z,4.80
2022-12-07T03:02:32.570Z,5.30
2022-12-07T03:03:32.518Z,5.30
2022-12-07T03:04:33.022Z,4.50
2022-12-07T03:05:32.483Z,5.10
2022-12-07T03:06:32.471Z,5.00
2022-12-07T03:07:32.399Z,5.40
2022-12-07T03:08:32.393Z,5.20
2022-12-07T03:09:32.435Z,5.10
2022-12-07T03:10:32.342Z,5.10
2022-12-07T03:11:32.275Z,5.50
2022-12-07T03:12:32.275Z,5.10
2022-12-07T03:13:32.261Z,5.10
2022-12-07T03:14:32.238Z,5.70
2022-12-07T03:15:37.154Z,5.10
2022-12-07T03:16:37.260Z,5.10
2022-12-07T03:18:42.002Z,5.10
2022-12-07T03:19:42.090Z,4.70
2022-12-07T03:20:42.061Z,5.60
2022-12-07T03:21:42.010Z,4.80
2022-12-07T03:22:41.956Z,4.80
2022-12-07T03:23:41.925Z,5.00
2022-12-07T03:24:41.891Z,5.30
2022-12-07T03:25:41.852Z,4.70
2022-12-07T03:26:41.849Z,4.90
2022-12-07T03:27:46.679Z,4.70
2022-12-07T03:28:46.792Z,5.80
2022-12-07T03:29:46.702Z,4.60
2022-12-07T03:30:50.702Z,5.40
2022-12-07T03:31:50.687Z,5.30
2022-12-07T03:32:50.600Z,5.10
2022-12-07T03:33:50.583Z,4.60
2022-12-07T03:34:50.556Z,4.60
2022-12-07T03:35:50.534Z,4.60
2022-12-07T03:36:50.498Z,4.70
2022-12-07T03:37:50.535Z,4.60
2022-12-07T03:38:50.462Z,4.50
2022-12-07T03:39:50.473Z,5.40
2022-12-07T03:40:50.398Z,4.50
2022-12-07T03:41:50.376Z,5.30
2022-12-07T03:42:50.346Z,5.40
2022-12-07T03:43:50.358Z,5.20
2022-12-07T03:44:50.266Z,4.90
2022-12-07T03:45:50.286Z,4.50
2022-12-07T03:46:50.305Z,4.90
2022-12-07T03:47:50.248Z,5.30
2022-12-07T03:48:50.234Z,5.00
2022-12-07T03:49:50.181Z,5.10
2022-12-07T03:50:50.148Z,4.60
2022-12-07T03:51:50.167Z,5.20
2022-12-07T03:52:50.084Z,5.50
2022-12-07T03:53:50.128Z,4.30
2022-12-07T03:54:50.058Z,5.00
2022-12-07T03:55:50.180Z,5.10
2022-12-07T03:56:50.000Z,4.50
2022-12-07T03:57:50.028Z,4.70
2022-12-07T03:58:49.970Z,4.60
2022-12-07T03:59:49.955Z,4.30
2022-12-07T04:00:49.911Z,4.80
2022-12-07T04:01:50.015Z,4.20
2022-12-07T04:03:55.712Z,5.10
2022-12-07T04:04:55.828Z,4.10
2022-12-07T04:05:55.764Z,4.70
2022-12-07T04:06:55.748Z,4.80
2022-12-07T04:07:55.776Z,5.50
2022-12-07T04:08:55.722Z,4.60
2022-12-07T04:09:55.676Z,4.50
2022-12-07T04:11:00.547Z,5.50
2022-12-07T04:12:00.708Z,4.50
2022-12-07T04:13:00.567Z,4.50
2022-12-07T04:14:00.571Z,5.20
2022-12-07T04:15:00.487Z,4.20
2022-12-07T04:16:00.562Z,4.80
2022-12-07T04:17:00.456Z,4.90
2022-12-07T04:18:00.460Z,4.90
2022-12-07T04:19:00.426Z,5.10
2022-12-07T04:20:00.929Z,4.60
2022-12-07T04:21:00.346Z,4.60
2022-12-07T04:22:00.328Z,5.10
2022-12-07T04:23:00.313Z,4.10
2022-12-07T04:24:00.325Z,4.90
2022-12-07T04:25:00.247Z,5.30
2022-12-07T04:26:00.251Z,5.20
2022-12-07T04:27:00.218Z,4.90
2022-12-07T04:28:00.225Z,4.70
2022-12-07T04:29:04.790Z,6.00
2022-12-07T04:30:00.703Z,5.50
2022-12-07T04:31:00.192Z,7.10
2022-12-07T04:32:00.124Z,6.40
2022-12-07T04:33:00.096Z,6.20
2022-12-07T04:34:00.081Z,6.40
2022-12-07T04:35:00.037Z,7.90
2022-12-07T04:36:00.021Z,7.90
2022-12-07T04:36:59.963Z,6.90
2022-12-07T04:37:59.941Z,7.50
2022-12-07T04:38:59.914Z,7.30
2022-12-07T04:40:00.163Z,8.00
2022-12-07T04:40:59.852Z,7.80
2022-12-07T04:41:59.798Z,8.00
2022-12-07T04:42:59.749Z,8.30
2022-12-07T04:43:59.713Z,9.10
2022-12-07T04:44:59.694Z,8.70
2022-12-07T04:45:59.673Z,8.00
2022-12-07T04:46:59.675Z,8.50
2022-12-07T04:47:59.574Z,8.90
2022-12-07T04:48:59.536Z,8.70
2022-12-07T04:49:59.971Z,9.30
2022-12-07T04:50:59.474Z,9.30
2022-12-07T04:51:59.459Z,8.90
2022-12-07T04:52:59.385Z,9.30
2022-12-07T04:53:59.382Z,9.40
2022-12-07T04:54:59.328Z,9.80
2022-12-07T04:55:59.318Z,8.80
2022-12-07T04:56:59.368Z,8.70
2022-12-07T04:57:59.299Z,9.10
2022-12-07T04:58:59.217Z,9.50
2022-12-07T04:59:59.270Z,9.00
2022-12-07T05:00:59.292Z,9.80
2022-12-07T05:01:59.198Z,8.90
2022-12-07T05:02:59.138Z,9.80
2022-12-07T05:03:59.117Z,9.60
2022-12-07T05:04:59.051Z,8.90
2022-12-07T05:06:07.922Z,9.20
2022-12-07T05:07:05.004Z,9.60
2022-12-07T05:08:04.987Z,9.50
2022-12-07T05:09:04.932Z,9.80
2022-12-07T05:10:05.366Z,10.10
2022-12-07T05:11:04.855Z,8.90
2022-12-07T05:12:04.809Z,9.40
2022-12-07T05:13:04.819Z,8.70
2022-12-07T05:14:04.787Z,9.50
2022-12-07T05:15:04.736Z,9.20
2022-12-07T05:16:04.785Z,9.40
2022-12-07T05:17:04.692Z,9.50
2022-12-07T05:18:04.644Z,9.10
2022-12-07T05:19:04.643Z,9.50
2022-12-07T05:20:05.030Z,8.90
2022-12-07T05:21:04.566Z,9.70
2022-12-07T05:22:04.530Z,9.30
2022-12-07T05:23:04.514Z,9.50
2022-12-07T05:24:04.474Z,9.50
2022-12-07T05:25:04.455Z,9.40
2022-12-07T05:26:04.499Z,10.90
2022-12-07T05:27:04.372Z,9.30
2022-12-07T05:28:04.331Z,9.30
2022-12-07T05:29:04.323Z,8.90
2022-12-07T05:30:04.524Z,9.10
2022-12-07T05:31:04.238Z,9.80
2022-12-07T05:32:04.292Z,9.40
2022-12-07T05:33:09.092Z,11.00
2022-12-07T05:34:09.184Z,9.70
2022-12-07T05:35:09.093Z,8.90
2022-12-07T05:36:13.957Z,8.90
2022-12-07T05:37:14.104Z,8.80
2022-12-07T05:38:13.985Z,9.00
2022-12-07T05:39:13.973Z,8.90
2022-12-07T05:40:13.920Z,9.10
2022-12-07T05:41:13.899Z,8.70
2022-12-07T05:42:13.839Z,9.00
2022-12-07T05:43:13.862Z,9.00
2022-12-07T05:44:13.878Z,7.80
2022-12-07T05:45:13.789Z,8.40
2022-12-07T05:46:13.754Z,9.40
2022-12-07T05:47:13.701Z,8.60
2022-12-07T05:48:13.644Z,9.30
2022-12-07T05:49:13.619Z,8.90
2022-12-07T05:50:13.549Z,8.40
2022-12-07T05:53:07.426Z,9.20
2022-12-07T05:54:07.439Z,8.30
2022-12-07T05:55:07.426Z,8.60
2022-12-07T05:56:07.354Z,8.30
2022-12-07T05:57:07.316Z,6.90
2022-12-07T05:58:07.281Z,8.30
2022-12-07T05:59:07.966Z,7.60
2022-12-07T06:00:07.233Z,7.80
2022-12-07T06:01:07.248Z,8.10
2022-12-07T06:02:07.273Z,7.70
2022-12-07T06:03:07.268Z,8.30
2022-12-07T06:04:07.090Z,8.80
2022-12-07T06:05:07.081Z,7.70
2022-12-07T06:06:07.095Z,7.90
2022-12-07T06:07:11.945Z,7.40
2022-12-07T06:08:12.043Z,8.20
2022-12-07T06:09:11.942Z,7.50
2022-12-07T06:10:11.966Z,8.00
2022-12-07T06:11:11.889Z,7.50
2022-12-07T06:12:11.896Z,7.80
2022-12-07T06:13:11.915Z,8.50
2022-12-07T06:14:11.838Z,8.10
2022-12-07T06:15:11.792Z,7.70
2022-12-07T06:16:11.954Z,9.20
2022-12-07T06:17:11.759Z,8.80
2022-12-07T06:18:11.720Z,8.80
2022-12-07T06:19:11.699Z,8.30
2022-12-07T06:20:11.646Z,7.60
2022-12-07T06:21:11.597Z,8.20
2022-12-07T06:22:11.589Z,8.00
2022-12-07T06:23:11.534Z,8.20
2022-12-07T06:24:11.506Z,8.40
2022-12-07T06:25:11.469Z,8.00
2022-12-07T06:26:11.434Z,9.20
2022-12-07T06:27:11.431Z,8.80
2022-12-07T06:28:11.382Z,9.10
2022-12-07T06:29:11.326Z,8.60
2022-12-07T06:30:11.283Z,8.50
2022-12-07T06:31:14.132Z,8.90
2022-12-07T06:32:11.277Z,9.30
2022-12-07T06:34:17.021Z,9.90
2022-12-07T06:35:17.090Z,9.30
2022-12-07T06:36:17.054Z,8.20
2022-12-07T06:37:17.048Z,8.50
2022-12-07T06:38:16.983Z,8.70
2022-12-07T06:39:16.953Z,9.30
2022-12-07T06:40:16.917Z,7.80
2022-12-07T06:41:16.886Z,8.60
2022-12-07T06:42:16.829Z,8.40
2022-12-07T06:43:16.800Z,7.60
2022-12-07T06:44:16.747Z,8.10
2022-12-07T06:45:16.746Z,7.80
2022-12-07T06:46:16.748Z,9.10
2022-12-07T06:47:40.547Z,8.70
2022-12-07T06:48:16.655Z,9.80
2022-12-07T06:49:16.605Z,9.20
2022-12-07T06:50:16.555Z,8.90
2022-12-07T06:51:16.545Z,9.60
2022-12-07T06:52:16.524Z,9.40
2022-12-07T06:53:16.457Z,9.30
2022-12-07T06:54:16.430Z,9.60
2022-12-07T06:55:16.395Z,9.30
2022-12-07T06:56:16.330Z,9.00
2022-12-07T06:57:16.341Z,10.00
2022-12-07T06:58:16.260Z,9.50
2022-12-07T06:59:16.281Z,10.20
2022-12-07T07:00:21.829Z,9.10
2022-12-07T07:01:16.292Z,9.50
2022-12-07T07:02:16.214Z,9.70
2022-12-07T07:03:16.129Z,10.50
2022-12-07T07:04:16.072Z,9.20
2022-12-07T07:05:16.084Z,9.40
2022-12-07T07:06:16.029Z,9.20
2022-12-07T07:07:16.033Z,8.70
2022-12-07T07:08:23.634Z,9.40
2022-12-07T07:09:16.013Z,10.20
2022-12-07T07:10:15.901Z,9.90
2022-12-07T07:11:15.845Z,10.30
2022-12-07T07:12:15.836Z,9.80
2022-12-07T07:13:15.748Z,11.00
2022-12-07T07:14:15.736Z,9.50
2022-12-07T07:15:15.732Z,10.00
2022-12-07T07:16:15.774Z,10.90
2022-12-07T07:17:20.591Z,19.80
2022-12-07T07:18:20.612Z,11.10
2022-12-07T07:19:20.697Z,10.90
2022-12-07T07:20:20.613Z,11.00
2022-12-07T07:21:20.521Z,10.60
2022-12-07T07:22:20.476Z,11.20
2022-12-07T07:23:20.450Z,10.20
2022-12-07T07:24:20.430Z,10.20
2022-12-07T07:25:20.344Z,11.00
2022-12-07T07:26:23.326Z,11.30
2022-12-07T07:27:20.287Z,11.90
2022-12-07T07:28:20.288Z,10.30
2022-12-07T07:29:20.216Z,10.30
2022-12-07T07:30:26.136Z,10.30
2022-12-07T07:31:26.255Z,11.50
2022-12-07T07:32:26.077Z,10.50
2022-12-07T07:33:26.063Z,10.90
2022-12-07T07:34:26.018Z,10.90
2022-12-07T07:35:26.011Z,10.50
2022-12-07T07:36:25.940Z,10.00
2022-12-07T07:37:25.917Z,10.00
2022-12-07T07:38:25.872Z,10.00
2022-12-07T07:39:25.854Z,10.80
2022-12-07T07:40:25.830Z,10.10
2022-12-07T07:41:25.814Z,11.30
2022-12-07T07:42:25.743Z,11.00
2022-12-07T07:43:25.727Z,10.60
2022-12-07T07:44:30.205Z,12.00
2022-12-07T07:45:25.652Z,10.30
2022-12-07T07:46:25.723Z,24.00
2022-12-07T07:47:25.585Z,12.50
2022-12-07T07:48:25.564Z,13.90
2022-12-07T07:49:25.533Z,10.20
2022-12-07T07:50:25.459Z,9.70
2022-12-07T07:51:25.421Z,11.50
2022-12-07T07:52:25.422Z,9.50
2022-12-07T07:53:25.353Z,9.80
2022-12-07T07:54:25.309Z,9.20
2022-12-07T07:55:25.293Z,9.20
2022-12-07T07:56:25.222Z,8.70
2022-12-07T07:57:25.195Z,9.00
2022-12-07T07:58:25.168Z,9.20
2022-12-07T07:59:25.139Z,9.90
2022-12-07T08:00:25.073Z,8.90
2022-12-07T08:01:25.118Z,9.10
2022-12-07T08:02:25.006Z,14.40
2022-12-07T08:03:25.003Z,8.10
2022-12-07T08:04:25.040Z,8.30
2022-12-07T08:05:24.985Z,21.00
2022-12-07T08:06:30.536Z,10.30
2022-12-07T08:07:24.952Z,9.60
2022-12-07T08:08:24.971Z,9.90
2022-12-07T08:09:24.846Z,10.30
2022-12-07T08:10:24.836Z,10.00
2022-12-07T08:11:24.834Z,9.20
2022-12-07T08:12:24.767Z,9.80
2022-12-07T08:13:30.602Z,12.70
2022-12-07T08:14:24.720Z,10.40
2022-12-07T08:15:24.710Z,10.10
2022-12-07T08:16:24.732Z,11.00
2022-12-07T08:17:24.595Z,12.40
2022-12-07T08:18:24.557Z,10.30
2022-12-07T08:19:24.534Z,9.50
2022-12-07T08:20:24.496Z,9.20
2022-12-07T08:21:29.422Z,14.80
2022-12-07T08:22:34.433Z,9.70
2022-12-07T08:23:39.471Z,9.40
2022-12-07T08:24:34.359Z,9.70
2022-12-07T08:25:34.436Z,9.40
2022-12-07T08:26:34.300Z,9.40
2022-12-07T08:27:34.286Z,10.90
2022-12-07T08:28:34.245Z,10.80
2022-12-07T08:29:34.230Z,10.00
2022-12-07T08:30:34.184Z,14.20
2022-12-07T08:31:34.204Z,9.70
2022-12-07T08:32:34.286Z,10.50
2022-12-07T08:33:34.084Z,10.00
2022-12-07T08:34:34.062Z,9.30
2022-12-07T08:35:34.050Z,10.10
2022-12-07T08:36:33.992Z,10.20
2022-12-07T08:37:33.949Z,10.00
2022-12-07T08:38:33.907Z,10.30
2022-12-07T08:39:39.770Z,8.70
2022-12-07T08:40:39.856Z,9.10
2022-12-07T08:41:39.784Z,8.60
2022-12-07T08:42:39.763Z,8.90
2022-12-07T08:43:39.719Z,8.90
2022-12-07T08:44:39.708Z,9.20
2022-12-07T08:45:39.668Z,9.60
2022-12-07T08:46:39.731Z,9.20
2022-12-07T08:47:39.570Z,8.60
2022-12-07T08:48:39.567Z,8.70
2022-12-07T08:49:39.533Z,9.00
2022-12-07T08:50:43.154Z,8.50
2022-12-07T08:51:39.450Z,9.20
2022-12-07T08:52:39.444Z,9.00
2022-12-07T08:53:39.365Z,9.90
2022-12-07T08:54:39.686Z,8.10
2022-12-07T08:55:39.376Z,9.50
2022-12-07T08:56:39.386Z,8.90
2022-12-07T08:57:39.243Z,8.40
2022-12-07T08:58:39.228Z,9.00
2022-12-07T08:59:39.224Z,9.50
2022-12-07T09:00:39.332Z,9.50
2022-12-07T09:01:39.229Z,9.90
2022-12-07T09:02:39.145Z,10.00
2022-12-07T09:03:45.088Z,9.00
2022-12-07T09:04:45.108Z,9.10
2022-12-07T09:05:45.061Z,9.20
2022-12-07T09:06:45.166Z,9.10
2022-12-07T09:07:44.972Z,9.80
2022-12-07T09:08:44.939Z,9.60
2022-12-07T09:09:44.866Z,9.40
2022-12-07T09:10:44.871Z,9.60
2022-12-07T09:11:44.831Z,9.00
2022-12-07T09:12:49.700Z,9.20
2022-12-07T09:13:49.794Z,9.20
2022-12-07T09:14:49.727Z,10.30
2022-12-07T09:15:49.755Z,9.30
2022-12-07T09:16:49.730Z,9.40
2022-12-07T09:17:49.676Z,8.40
2022-12-07T09:18:49.645Z,9.20
2022-12-07T09:19:55.514Z,9.20
2022-12-07T09:20:55.621Z,9.50
2022-12-07T09:21:55.614Z,8.60
2022-12-07T09:22:55.562Z,9.10
2022-12-07T09:23:55.521Z,9.40
2022-12-07T09:24:55.545Z,9.70
2022-12-07T09:25:55.470Z,9.40
2022-12-07T09:26:55.518Z,8.80
2022-12-07T09:27:55.441Z,9.10
2022-12-07T09:28:55.966Z,9.50
2022-12-07T09:29:55.369Z,9.30
2022-12-07T09:31:22.054Z,9.00
2022-12-07T09:31:55.393Z,9.10
2022-12-07T09:32:55.329Z,9.60
2022-12-07T09:33:55.355Z,9.30
2022-12-07T09:34:55.341Z,9.50
2022-12-07T09:35:55.320Z,9.10
2022-12-07T09:36:55.244Z,9.20
2022-12-07T09:37:55.213Z,9.00
2022-12-07T09:38:55.216Z,9.10
2022-12-07T09:40:00.090Z,9.10
2022-12-07T09:41:04.046Z,8.50
2022-12-07T09:42:04.106Z,8.90
2022-12-07T09:43:04.102Z,9.10
2022-12-07T09:44:04.061Z,9.00
2022-12-07T09:45:04.072Z,8.90
2022-12-07T09:46:04.110Z,8.90
2022-12-07T09:47:04.004Z,9.00
2022-12-07T09:48:04.014Z,8.80
2022-12-07T09:49:03.939Z,8.50
2022-12-07T09:50:04.224Z,8.00
2022-12-07T09:51:03.923Z,9.20
2022-12-07T09:52:04.880Z,9.00
2022-12-07T09:53:04.852Z,8.50
2022-12-07T09:54:04.863Z,9.10
2022-12-07T09:55:05.409Z,8.60
2022-12-07T09:56:04.883Z,9.00
2022-12-07T09:57:04.774Z,9.00
2022-12-07T09:58:04.747Z,8.80
2022-12-07T09:59:04.669Z,8.50
2022-12-07T10:00:04.676Z,8.40
2022-12-07T10:01:04.635Z,9.00
2022-12-07T10:02:04.823Z,9.40
2022-12-07T10:03:04.598Z,8.10
2022-12-07T10:04:04.582Z,8.30
2022-12-07T10:05:04.926Z,7.90
2022-12-07T10:06:04.535Z,7.10
2022-12-07T10:07:04.485Z,7.90
2022-12-07T10:08:04.591Z,7.10
2022-12-07T10:09:04.474Z,7.00
2022-12-07T10:10:04.442Z,7.30
2022-12-07T10:11:04.393Z,7.10
2022-12-07T10:12:04.406Z,6.40
2022-12-07T10:13:04.338Z,6.50
2022-12-07T10:14:04.349Z,6.80
2022-12-07T10:15:08.501Z,6.40
2022-12-07T10:17:58.198Z,7.10
2022-12-07T10:18:58.225Z,7.20
2022-12-07T10:19:58.280Z,7.30
2022-12-07T10:20:58.184Z,7.10
2022-12-07T10:21:58.679Z,7.00
2022-12-07T10:22:58.175Z,6.90
2022-12-07T10:23:58.173Z,7.10
2022-12-07T10:24:58.135Z,6.70
2022-12-07T10:25:58.153Z,6.30
2022-12-07T10:26:58.097Z,6.80
2022-12-07T10:27:58.098Z,6.50
2022-12-07T10:28:58.052Z,7.50
2022-12-07T10:29:58.053Z,6.90
2022-12-07T10:30:58.189Z,6.50
2022-12-07T10:31:58.053Z,7.10
2022-12-07T10:32:57.984Z,6.40
2022-12-07T10:33:57.999Z,7.10
2022-12-07T10:34:57.942Z,7.10
2022-12-07T10:35:57.959Z,6.90
2022-12-07T10:36:57.925Z,6.90
2022-12-07T10:37:57.931Z,6.70
2022-12-07T10:38:57.902Z,6.60
2022-12-07T10:39:57.928Z,7.70
2022-12-07T10:40:57.867Z,7.00
2022-12-07T10:41:57.894Z,6.90
2022-12-07T10:44:01.887Z,6.70
2022-12-07T10:45:02.167Z,7.30
2022-12-07T10:46:04.007Z,7.00
2022-12-07T10:47:01.880Z,7.20
2022-12-07T10:48:01.823Z,6.20
2022-12-07T10:49:01.818Z,6.80
2022-12-07T10:50:01.802Z,6.70
2022-12-07T10:51:02.332Z,6.50
2022-12-07T10:52:01.786Z,6.50
2022-12-07T10:53:01.775Z,5.70
2022-12-07T10:54:01.735Z,5.90
2022-12-07T10:55:02.191Z,6.50
2022-12-07T10:56:01.690Z,7.00
2022-12-07T10:57:01.704Z,7.20
2022-12-07T10:58:01.675Z,7.20
2022-12-07T10:59:01.681Z,7.50
2022-12-07T11:00:01.637Z,6.90
2022-12-07T11:01:01.704Z,6.60
2022-12-07T11:02:01.676Z,7.30
2022-12-07T11:03:01.662Z,6.40
2022-12-07T11:04:01.586Z,7.00
2022-12-07T11:05:01.998Z,6.60
2022-12-07T11:06:01.578Z,6.50
2022-12-07T11:07:01.587Z,7.00
2022-12-07T11:08:01.719Z,7.50
2022-12-07T11:09:01.557Z,7.60
2022-12-07T11:10:09.970Z,7.00
2022-12-07T11:11:01.488Z,7.10
2022-12-07T11:12:01.455Z,8.40
2022-12-07T11:13:01.470Z,7.40
2022-12-07T11:14:01.473Z,6.90
2022-12-07T11:15:01.447Z,6.60
2022-12-07T11:16:01.478Z,6.50
2022-12-07T11:17:01.413Z,6.90
2022-12-07T11:18:01.366Z,7.80
2022-12-07T11:19:01.360Z,6.70
2022-12-07T11:20:01.826Z,6.40
2022-12-07T11:21:01.334Z,6.70
2022-12-07T11:22:01.297Z,6.90
2022-12-07T11:23:01.307Z,6.70
2022-12-07T11:24:01.269Z,6.40
2022-12-07T11:25:01.284Z,6.30
2022-12-07T11:26:01.268Z,6.40
2022-12-07T11:27:01.245Z,6.30
2022-12-07T11:28:01.222Z,6.00
2022-12-07T11:29:01.186Z,6.60
2022-12-07T11:30:01.496Z,6.30
2022-12-07T11:31:01.149Z,6.50
2022-12-07T11:32:01.251Z,6.70
2022-12-07T11:33:01.080Z,6.60
2022-12-07T11:34:01.066Z,6.10
2022-12-07T11:35:01.039Z,6.30
2022-12-07T11:36:01.066Z,6.00
2022-12-07T11:37:01.053Z,5.90
2022-12-07T11:38:01.050Z,5.60
2022-12-07T11:39:06.872Z,6.40
2022-12-07T11:40:06.942Z,6.40
2022-12-07T11:41:06.918Z,5.70
2022-12-07T11:42:06.919Z,6.90
2022-12-07T11:43:06.916Z,5.70
2022-12-07T11:44:06.920Z,5.90
2022-12-07T11:45:06.855Z,5.50
2022-12-07T11:46:11.820Z,5.80
2022-12-07T11:47:11.888Z,5.50
2022-12-07T11:48:11.843Z,6.40
2022-12-07T11:49:15.641Z,6.90
2022-12-07T11:50:15.777Z,6.00
2022-12-07T11:51:15.718Z,6.30
2022-12-07T11:52:15.677Z,6.80
2022-12-07T11:53:16.654Z,5.70
2022-12-07T11:54:16.620Z,6.50
2022-12-07T11:55:16.588Z,5.90
2022-12-07T11:56:16.600Z,6.50
2022-12-07T11:57:20.008Z,5.50
2022-12-07T11:58:16.549Z,5.40
2022-12-07T11:59:16.528Z,4.90
2022-12-07T12:00:16.519Z,5.00
2022-12-07T12:01:16.498Z,5.80
2022-12-07T12:02:16.583Z,5.80
2022-12-07T12:03:16.495Z,5.20
2022-12-07T12:04:16.461Z,5.40
2022-12-07T12:05:16.449Z,5.40
2022-12-07T12:06:16.424Z,5.30
2022-12-07T12:09:40.758Z,6.10
2022-12-07T12:10:16.446Z,5.30
2022-12-07T12:11:16.382Z,5.60
2022-12-07T12:14:36.427Z,5.60
2022-12-07T12:15:22.348Z,5.60
2022-12-07T12:16:22.427Z,6.30
2022-12-07T12:17:22.363Z,5.60
2022-12-07T12:18:22.320Z,5.30
2022-12-07T12:19:22.326Z,6.90
2022-12-07T12:20:22.308Z,6.30
2022-12-07T12:21:22.324Z,5.80
2022-12-07T12:22:22.286Z,5.90
2022-12-07T12:23:22.296Z,5.80
2022-12-07T12:24:22.247Z,6.40
2022-12-07T12:25:22.289Z,5.40
2022-12-07T12:26:22.401Z,5.80
2022-12-07T12:27:22.274Z,6.00
2022-12-07T12:28:22.268Z,6.50
2022-12-07T12:29:22.238Z,6.00
2022-12-07T12:30:22.216Z,6.20
2022-12-07T12:31:22.275Z,5.90
2022-12-07T12:32:22.253Z,5.80
2022-12-07T12:33:22.194Z,5.80
2022-12-07T12:34:22.176Z,6.30
2022-12-07T12:35:22.182Z,5.90
2022-12-07T12:36:22.218Z,6.40
2022-12-07T12:37:22.166Z,6.20
2022-12-07T12:38:22.160Z,6.20
2022-12-07T12:39:22.187Z,6.50
2022-12-07T12:40:22.134Z,5.30
2022-12-07T12:41:22.170Z,5.60
2022-12-07T12:42:22.154Z,5.70
2022-12-07T12:43:22.150Z,5.60
2022-12-07T12:44:22.134Z,5.40
2022-12-07T12:45:22.127Z,6.00
2022-12-07T12:46:22.148Z,6.10
2022-12-07T12:47:22.107Z,5.70
2022-12-07T12:48:22.055Z,5.90
2022-12-07T12:49:22.060Z,5.70
2022-12-07T12:50:22.067Z,6.40
2022-12-07T12:51:22.070Z,6.00
2022-12-07T12:52:22.032Z,6.10
2022-12-07T12:53:22.071Z,6.20
2022-12-07T12:54:22.040Z,6.40
2022-12-07T12:55:22.047Z,5.50
2022-12-07T12:56:22.076Z,5.90
2022-12-07T12:57:22.033Z,5.90
2022-12-07T12:58:22.024Z,6.00
2022-12-07T12:59:22.058Z,6.40
2022-12-07T13:00:22.028Z,6.40
2022-12-07T13:01:22.168Z,6.20
2022-12-07T13:02:22.150Z,6.50
2022-12-07T13:03:22.051Z,5.80
2022-12-07T13:04:22.021Z,5.50
2022-12-07T13:05:22.058Z,5.80
2022-12-07T13:06:22.040Z,6.00
2022-12-07T13:07:22.096Z,6.20
2022-12-07T13:08:22.073Z,7.30
2022-12-07T13:09:22.038Z,6.30
2022-12-07T13:10:22.030Z,6.70
2022-12-07T13:11:22.038Z,6.30
2022-12-07T13:12:22.058Z,6.50
2022-12-07T13:13:22.040Z,6.20
2022-12-07T13:14:22.019Z,5.70
2022-12-07T13:15:22.029Z,6.00
2022-12-07T13:16:22.106Z,5.30
2022-12-07T13:17:22.021Z,6.00
2022-12-07T13:18:22.013Z,5.70
2022-12-07T13:19:22.045Z,5.00
2022-12-07T13:20:21.994Z,5.80
2022-12-07T13:21:22.015Z,6.60
2022-12-07T13:22:21.988Z,6.50
2022-12-07T13:23:22.015Z,5.80
2022-12-07T13:24:22.019Z,5.50
2022-12-07T13:25:25.906Z,5.90
2022-12-07T13:26:25.982Z,6.00
2022-12-07T13:27:25.976Z,5.80
2022-12-07T13:28:26.014Z,6.30
2022-12-07T13:29:25.937Z,5.60
2022-12-07T13:30:26.124Z,5.50
2022-12-07T13:31:26.022Z,6.60
2022-12-07T13:32:25.977Z,7.00
2022-12-07T13:33:26.104Z,6.40